sensor_id;sensor_type;location;lat;lon;timestamp;pressure;altitude;pressure_sealevel;temperature;humidity
66176;BME280;52977;44.816;20.538;2024-01-06T00:00:05;98904.31;;;11.45;73.44
66176;BME280;52977;44.816;20.538;2024-01-06T00:02:37;98882.94;;;11.35;73.89
66176;BME280;52977;44.816;20.538;2024-01-06T00:05:05;98923.66;;;11.53;74.24
66176;BME280;52977;44.816;20.538;2024-01-06T00:07:31;98925.84;;;11.47;74.62
66176;BME280;52977;44.816;20.538;2024-01-06T00:09:57;98914.56;;;11.49;74.24
66176;BME280;52977;44.816;20.538;2024-01-06T00:12:23;98774.53;;;10.54;73.90
66176;BME280;52977;44.816;20.538;2024-01-06T00:14:50;98911.41;;;11.34;73.53
66176;BME280;52977;44.816;20.538;2024-01-06T00:17:16;98925.72;;;11.43;73.49
66176;BME280;52977;44.816;20.538;2024-01-06T00:19:43;98914.44;;;11.45;73.08
66176;BME280;52977;44.816;20.538;2024-01-06T00:22:09;98865.63;;;11.03;73.60
66176;BME280;52977;44.816;20.538;2024-01-06T00:24:35;98910.94;;;11.44;73.23
66176;BME280;52977;44.816;20.538;2024-01-06T00:27:02;98916.41;;;11.44;73.28
66176;BME280;52977;44.816;20.538;2024-01-06T00:29:28;98863.00;;;11.06;73.58
66176;BME280;52977;44.816;20.538;2024-01-06T00:31:55;98860.81;;;11.12;73.70
66176;BME280;52977;44.816;20.538;2024-01-06T00:34:21;98900.47;;;11.34;73.59
66176;BME280;52977;44.816;20.538;2024-01-06T00:36:47;98890.38;;;11.22;73.65
66176;BME280;52977;44.816;20.538;2024-01-06T00:39:13;98910.25;;;11.35;73.55
66176;BME280;52977;44.816;20.538;2024-01-06T00:41:40;98903.31;;;11.38;73.53
66176;BME280;52977;44.816;20.538;2024-01-06T00:44:06;98906.75;;;11.35;73.45
66176;BME280;52977;44.816;20.538;2024-01-06T00:46:33;98815.84;;;10.81;73.04
66176;BME280;52977;44.816;20.538;2024-01-06T00:48:59;98900.94;;;11.36;72.92
66176;BME280;52977;44.816;20.538;2024-01-06T00:51:25;98866.84;;;11.18;72.48
66176;BME280;52977;44.816;20.538;2024-01-06T00:53:52;98857.84;;;11.17;72.62
66176;BME280;52977;44.816;20.538;2024-01-06T00:56:19;98854.34;;;11.17;71.85
66176;BME280;52977;44.816;20.538;2024-01-06T00:58:45;98819.91;;;11.00;71.61
66176;BME280;52977;44.816;20.538;2024-01-06T01:01:11;98845.88;;;11.22;70.67
66176;BME280;52977;44.816;20.538;2024-01-06T01:03:37;98896.75;;;11.55;70.43
66176;BME280;52977;44.816;20.538;2024-01-06T01:06:03;98884.34;;;11.57;69.42
66176;BME280;52977;44.816;20.538;2024-01-06T01:08:30;98845.41;;;11.32;68.85
66176;BME280;52977;44.816;20.538;2024-01-06T01:10:56;98892.50;;;11.70;68.64
66176;BME280;52977;44.816;20.538;2024-01-06T01:13:22;98876.69;;;11.63;67.55
66176;BME280;52977;44.816;20.538;2024-01-06T01:15:49;98842.34;;;11.50;67.27
66176;BME280;52977;44.816;20.538;2024-01-06T01:18:15;98884.03;;;11.75;67.23
66176;BME280;52977;44.816;20.538;2024-01-06T01:20:41;98756.56;;;10.94;66.83
66176;BME280;52977;44.816;20.538;2024-01-06T01:23:08;98850.75;;;11.57;66.30
66176;BME280;52977;44.816;20.538;2024-01-06T01:25:34;98837.34;;;11.52;66.35
66176;BME280;52977;44.816;20.538;2024-01-06T01:28:01;98853.13;;;11.58;65.44
66176;BME280;52977;44.816;20.538;2024-01-06T01:30:27;98857.72;;;11.70;65.39
66176;BME280;52977;44.816;20.538;2024-01-06T01:32:53;98848.75;;;11.70;65.06
66176;BME280;52977;44.816;20.538;2024-01-06T01:35:19;98862.69;;;11.80;64.27
66176;BME280;52977;44.816;20.538;2024-01-06T01:37:46;98825.53;;;11.63;63.82
66176;BME280;52977;44.816;20.538;2024-01-06T01:40:12;98868.72;;;11.86;63.17
66176;BME280;52977;44.816;20.538;2024-01-06T01:42:38;98825.44;;;11.60;62.47
66176;BME280;52977;44.816;20.538;2024-01-06T01:45:05;98799.06;;;11.52;62.11
66176;BME280;52977;44.816;20.538;2024-01-06T01:47:31;98726.66;;;11.14;61.69
66176;BME280;52977;44.816;20.538;2024-01-06T01:49:58;98841.44;;;11.90;61.52
66176;BME280;52977;44.816;20.538;2024-01-06T01:52:24;98829.34;;;11.91;60.84
66176;BME280;52977;44.816;20.538;2024-01-06T01:54:52;98799.28;;;11.75;60.82
66176;BME280;52977;44.816;20.538;2024-01-06T01:57:19;98844.75;;;12.11;60.73
66176;BME280;52977;44.816;20.538;2024-01-06T01:59:47;98825.03;;;11.90;60.35
66176;BME280;52977;44.816;20.538;2024-01-06T02:02:14;98836.44;;;12.08;60.23
66176;BME280;52977;44.816;20.538;2024-01-06T02:04:40;98823.59;;;12.08;60.12
66176;BME280;52977;44.816;20.538;2024-01-06T02:07:07;98837.31;;;12.12;60.17
66176;BME280;52977;44.816;20.538;2024-01-06T02:09:33;98803.88;;;11.87;60.21
66176;BME280;52977;44.816;20.538;2024-01-06T02:11:59;98834.16;;;12.10;60.09
66176;BME280;52977;44.816;20.538;2024-01-06T02:14:26;98849.50;;;12.14;60.27
66176;BME280;52977;44.816;20.538;2024-01-06T02:16:52;98808.13;;;12.00;59.98
66176;BME280;52977;44.816;20.538;2024-01-06T02:19:18;98784.72;;;11.87;60.16
66176;BME280;52977;44.816;20.538;2024-01-06T02:21:50;98826.75;;;12.10;60.08
66176;BME280;52977;44.816;20.538;2024-01-06T02:24:17;98766.72;;;11.70;60.28
66176;BME280;52977;44.816;20.538;2024-01-06T02:26:43;98738.25;;;11.55;60.13
66176;BME280;52977;44.816;20.538;2024-01-06T02:29:09;98799.66;;;12.05;59.83
66176;BME280;52977;44.816;20.538;2024-01-06T02:31:36;98811.47;;;12.09;59.64
66176;BME280;52977;44.816;20.538;2024-01-06T02:34:02;98778.75;;;11.97;59.52
66176;BME280;52977;44.816;20.538;2024-01-06T02:36:28;98795.00;;;12.06;59.66
66176;BME280;52977;44.816;20.538;2024-01-06T02:38:54;98806.53;;;12.15;59.19
66176;BME280;52977;44.816;20.538;2024-01-06T02:41:21;98756.44;;;11.95;59.63
66176;BME280;52977;44.816;20.538;2024-01-06T02:43:47;98785.44;;;12.16;59.84
66176;BME280;52977;44.816;20.538;2024-01-06T02:46:13;98755.72;;;11.98;60.17
66176;BME280;52977;44.816;20.538;2024-01-06T02:48:40;98766.66;;;11.98;60.27
66176;BME280;52977;44.816;20.538;2024-01-06T02:51:06;98750.59;;;11.80;60.39
66176;BME280;52977;44.816;20.538;2024-01-06T02:53:32;98711.78;;;11.59;60.48
66176;BME280;52977;44.816;20.538;2024-01-06T02:55:59;98739.56;;;11.77;60.74
66176;BME280;52977;44.816;20.538;2024-01-06T02:58:25;98774.16;;;12.01;60.73
66176;BME280;52977;44.816;20.538;2024-01-06T03:00:51;98748.19;;;11.79;60.61
66176;BME280;52977;44.816;20.538;2024-01-06T03:03:18;98757.56;;;11.94;60.38
66176;BME280;52977;44.816;20.538;2024-01-06T03:05:44;98716.72;;;11.69;60.71
66176;BME280;52977;44.816;20.538;2024-01-06T03:08:13;98713.28;;;11.56;60.35
66176;BME280;52977;44.816;20.538;2024-01-06T03:10:39;98752.44;;;11.92;60.50
66176;BME280;52977;44.816;20.538;2024-01-06T03:13:05;98751.19;;;11.90;60.16
66176;BME280;52977;44.816;20.538;2024-01-06T03:15:32;98730.81;;;11.87;60.17
66176;BME280;52977;44.816;20.538;2024-01-06T03:17:58;98737.72;;;11.97;60.08
66176;BME280;52977;44.816;20.538;2024-01-06T03:20:24;98746.00;;;12.01;60.14
66176;BME280;52977;44.816;20.538;2024-01-06T03:22:51;98746.00;;;12.01;60.16
66176;BME280;52977;44.816;20.538;2024-01-06T03:25:17;98676.16;;;11.55;59.90
66176;BME280;52977;44.816;20.538;2024-01-06T03:27:43;98743.63;;;11.99;60.36
66176;BME280;52977;44.816;20.538;2024-01-06T03:30:10;98736.63;;;11.86;60.01
66176;BME280;52977;44.816;20.538;2024-01-06T03:32:37;98747.09;;;11.96;60.13
66176;BME280;52977;44.816;20.538;2024-01-06T03:35:03;98746.13;;;12.04;59.95
66176;BME280;52977;44.816;20.538;2024-01-06T03:37:33;98728.59;;;11.93;59.90
66176;BME280;52977;44.816;20.538;2024-01-06T03:39:59;98740.19;;;12.02;60.24
66176;BME280;52977;44.816;20.538;2024-01-06T03:42:25;98646.22;;;11.43;60.02
66176;BME280;52977;44.816;20.538;2024-01-06T03:44:52;98573.34;;;10.83;60.19
66176;BME280;52977;44.816;20.538;2024-01-06T03:47:18;98650.50;;;11.44;60.34
66176;BME280;52977;44.816;20.538;2024-01-06T03:49:45;98683.47;;;11.67;60.31
66176;BME280;52977;44.816;20.538;2024-01-06T03:52:11;98658.63;;;11.56;60.16
66176;BME280;52977;44.816;20.538;2024-01-06T03:54:38;98726.00;;;11.96;60.35
66176;BME280;52977;44.816;20.538;2024-01-06T03:57:04;98608.66;;;11.24;60.35
66176;BME280;52977;44.816;20.538;2024-01-06T03:59:30;98568.66;;;10.84;59.99
66176;BME280;52977;44.816;20.538;2024-01-06T04:01:56;98709.38;;;11.89;60.30
66176;BME280;52977;44.816;20.538;2024-01-06T04:04:23;98710.19;;;11.90;60.22
66176;BME280;52977;44.816;20.538;2024-01-06T04:06:49;98706.19;;;11.87;60.30
66176;BME280;52977;44.816;20.538;2024-01-06T04:09:15;98668.78;;;11.56;60.33
66176;BME280;52977;44.816;20.538;2024-01-06T04:11:42;98604.34;;;11.23;60.37
66176;BME280;52977;44.816;20.538;2024-01-06T04:14:08;98714.63;;;11.94;60.28
66176;BME280;52977;44.816;20.538;2024-01-06T04:16:34;98704.38;;;11.75;60.61
66176;BME280;52977;44.816;20.538;2024-01-06T04:19:01;98711.69;;;11.87;60.28
66176;BME280;52977;44.816;20.538;2024-01-06T04:21:27;98677.66;;;11.69;60.41
66176;BME280;52977;44.816;20.538;2024-01-06T04:23:54;98722.91;;;11.98;60.12
66176;BME280;52977;44.816;20.538;2024-01-06T04:26:22;98679.25;;;11.70;60.08
66176;BME280;52977;44.816;20.538;2024-01-06T04:28:48;98598.09;;;11.22;59.80
66176;BME280;52977;44.816;20.538;2024-01-06T04:31:14;98690.44;;;11.80;59.49
66176;BME280;52977;44.816;20.538;2024-01-06T04:33:41;98703.94;;;11.89;60.14
66176;BME280;52977;44.816;20.538;2024-01-06T04:36:07;98566.84;;;11.04;60.17
66176;BME280;52977;44.816;20.538;2024-01-06T04:38:33;98591.31;;;11.16;60.00
66176;BME280;52977;44.816;20.538;2024-01-06T04:40:59;98624.53;;;11.34;59.78
66176;BME280;52977;44.816;20.538;2024-01-06T04:43:26;98695.97;;;11.84;60.55
66176;BME280;52977;44.816;20.538;2024-01-06T04:45:52;98684.53;;;11.78;59.96
66176;BME280;52977;44.816;20.538;2024-01-06T04:48:19;98707.44;;;11.90;60.28
66176;BME280;52977;44.816;20.538;2024-01-06T04:50:45;98653.09;;;11.53;60.25
66176;BME280;52977;44.816;20.538;2024-01-06T04:53:11;98675.44;;;11.74;60.26
66176;BME280;52977;44.816;20.538;2024-01-06T04:55:38;98617.84;;;11.32;60.61
66176;BME280;52977;44.816;20.538;2024-01-06T04:58:04;98701.38;;;11.80;60.59
66176;BME280;52977;44.816;20.538;2024-01-06T05:00:30;98709.28;;;11.86;60.86
66176;BME280;52977;44.816;20.538;2024-01-06T05:02:56;98674.56;;;11.70;60.78
66176;BME280;52977;44.816;20.538;2024-01-06T05:05:23;98641.28;;;11.49;60.73
66176;BME280;52977;44.816;20.538;2024-01-06T05:07:49;98688.41;;;11.77;60.80
66176;BME280;52977;44.816;20.538;2024-01-06T05:10:15;98604.19;;;11.16;60.79
66176;BME280;52977;44.816;20.538;2024-01-06T05:12:42;98657.84;;;11.56;60.74
66176;BME280;52977;44.816;20.538;2024-01-06T05:15:09;98714.63;;;11.94;60.38
66176;BME280;52977;44.816;20.538;2024-01-06T05:17:35;98716.09;;;11.92;60.76
66176;BME280;52977;44.816;20.538;2024-01-06T05:20:01;98702.31;;;11.88;60.68
66176;BME280;52977;44.816;20.538;2024-01-06T05:22:29;98634.94;;;11.44;60.60
66176;BME280;52977;44.816;20.538;2024-01-06T05:24:56;98685.31;;;11.79;60.61
66176;BME280;52977;44.816;20.538;2024-01-06T05:27:22;98656.16;;;11.67;60.72
66176;BME280;52977;44.816;20.538;2024-01-06T05:29:48;98695.63;;;11.86;60.60
66176;BME280;52977;44.816;20.538;2024-01-06T05:32:16;98692.88;;;11.86;60.80
66176;BME280;52977;44.816;20.538;2024-01-06T05:34:41;98670.34;;;11.73;61.04
66176;BME280;52977;44.816;20.538;2024-01-06T05:37:08;98638.72;;;11.56;60.20
66176;BME280;52977;44.816;20.538;2024-01-06T05:39:34;98653.25;;;11.60;60.35
66176;BME280;52977;44.816;20.538;2024-01-06T05:41:59;98691.13;;;11.77;60.47
66176;BME280;52977;44.816;20.538;2024-01-06T05:44:26;98666.63;;;11.65;60.32
66176;BME280;52977;44.816;20.538;2024-01-06T05:46:52;98702.06;;;11.93;60.55
66176;BME280;52977;44.816;20.538;2024-01-06T05:49:18;98668.31;;;11.70;60.28
66176;BME280;52977;44.816;20.538;2024-01-06T05:51:45;98678.34;;;11.82;60.65
66176;BME280;52977;44.816;20.538;2024-01-06T05:54:12;98648.22;;;11.62;60.41
66176;BME280;52977;44.816;20.538;2024-01-06T05:56:39;98696.28;;;11.95;60.15
66176;BME280;52977;44.816;20.538;2024-01-06T05:59:05;98596.16;;;11.23;60.14
66176;BME280;52977;44.816;20.538;2024-01-06T06:01:31;98688.66;;;11.88;60.19
66176;BME280;52977;44.816;20.538;2024-01-06T06:03:58;98666.88;;;11.76;60.32
66176;BME280;52977;44.816;20.538;2024-01-06T06:06:23;98694.66;;;11.94;60.08
66176;BME280;52977;44.816;20.538;2024-01-06T06:08:50;98685.41;;;11.83;60.19
66176;BME280;52977;44.816;20.538;2024-01-06T06:11:16;98671.56;;;11.75;60.16
66176;BME280;52977;44.816;20.538;2024-01-06T06:13:42;98592.03;;;11.29;59.95
66176;BME280;52977;44.816;20.538;2024-01-06T06:16:09;98648.38;;;11.69;60.05
66176;BME280;52977;44.816;20.538;2024-01-06T06:18:38;98622.75;;;11.42;60.03
66176;BME280;52977;44.816;20.538;2024-01-06T06:21:06;98597.06;;;11.11;60.38
66176;BME280;52977;44.816;20.538;2024-01-06T06:23:34;98655.00;;;11.52;60.47
66176;BME280;52977;44.816;20.538;2024-01-06T06:26:07;98696.88;;;11.88;60.45
66176;BME280;52977;44.816;20.538;2024-01-06T06:28:34;98673.84;;;11.73;60.42
66176;BME280;52977;44.816;20.538;2024-01-06T06:31:03;98663.38;;;11.75;60.42
66176;BME280;52977;44.816;20.538;2024-01-06T06:33:30;98661.63;;;11.67;60.44
66176;BME280;52977;44.816;20.538;2024-01-06T06:35:56;98686.31;;;11.71;60.36
66176;BME280;52977;44.816;20.538;2024-01-06T06:38:23;98608.13;;;11.34;60.83
66176;BME280;52977;44.816;20.538;2024-01-06T06:40:51;98691.03;;;11.90;61.16
66176;BME280;52977;44.816;20.538;2024-01-06T06:43:17;98694.56;;;11.90;60.76
66176;BME280;52977;44.816;20.538;2024-01-06T06:45:43;98618.69;;;11.36;60.96
66176;BME280;52977;44.816;20.538;2024-01-06T06:48:10;98648.16;;;11.58;60.74
66176;BME280;52977;44.816;20.538;2024-01-06T06:50:36;98692.47;;;11.84;60.75
66176;BME280;52977;44.816;20.538;2024-01-06T06:53:02;98657.03;;;11.71;61.13
66176;BME280;52977;44.816;20.538;2024-01-06T06:55:29;98682.41;;;11.88;61.09
66176;BME280;52977;44.816;20.538;2024-01-06T06:57:55;98651.97;;;11.73;60.60
66176;BME280;52977;44.816;20.538;2024-01-06T07:00:21;98688.38;;;11.93;60.96
66176;BME280;52977;44.816;20.538;2024-01-06T07:02:48;98697.41;;;11.94;60.93
66176;BME280;52977;44.816;20.538;2024-01-06T07:05:16;98691.75;;;11.87;61.09
66176;BME280;52977;44.816;20.538;2024-01-06T07:07:43;98716.28;;;11.99;61.61
66176;BME280;52977;44.816;20.538;2024-01-06T07:10:13;98707.81;;;11.88;61.77
66176;BME280;52977;44.816;20.538;2024-01-06T07:12:39;98714.84;;;12.05;61.46
66176;BME280;52977;44.816;20.538;2024-01-06T07:15:06;98651.66;;;11.59;61.12
66176;BME280;52977;44.816;20.538;2024-01-06T07:17:32;98704.63;;;12.02;61.29
66176;BME280;52977;44.816;20.538;2024-01-06T07:19:58;98701.28;;;12.09;60.89
66176;BME280;52977;44.816;20.538;2024-01-06T07:22:25;98668.63;;;11.84;60.50
66176;BME280;52977;44.816;20.538;2024-01-06T07:24:51;98667.50;;;11.85;60.17
66176;BME280;52977;44.816;20.538;2024-01-06T07:27:17;98678.72;;;11.96;60.59
66176;BME280;52977;44.816;20.538;2024-01-06T07:29:43;98702.88;;;12.10;60.83
66176;BME280;52977;44.816;20.538;2024-01-06T07:32:10;98657.44;;;11.89;60.46
66176;BME280;52977;44.816;20.538;2024-01-06T07:34:36;98724.97;;;12.21;60.08
66176;BME280;52977;44.816;20.538;2024-01-06T07:37:02;98699.34;;;12.29;60.13
66176;BME280;52977;44.816;20.538;2024-01-06T07:39:28;98701.03;;;12.34;60.07
66176;BME280;52977;44.816;20.538;2024-01-06T07:41:55;98702.44;;;12.27;60.16
66176;BME280;52977;44.816;20.538;2024-01-06T07:44:21;98677.31;;;12.22;60.17
66176;BME280;52977;44.816;20.538;2024-01-06T07:46:51;98690.50;;;12.36;60.34
66176;BME280;52977;44.816;20.538;2024-01-06T07:49:17;98640.84;;;11.98;60.04
66176;BME280;52977;44.816;20.538;2024-01-06T07:51:44;98722.88;;;12.50;59.75
66176;BME280;52977;44.816;20.538;2024-01-06T07:54:10;98658.09;;;12.18;60.08
66176;BME280;52977;44.816;20.538;2024-01-06T07:56:37;98704.47;;;12.50;60.48
66176;BME280;52977;44.816;20.538;2024-01-06T07:59:03;98677.91;;;12.31;60.62
66176;BME280;52977;44.816;20.538;2024-01-06T08:01:30;98708.03;;;12.51;60.56
66176;BME280;52977;44.816;20.538;2024-01-06T08:03:57;98651.41;;;12.16;60.44
66176;BME280;52977;44.816;20.538;2024-01-06T08:06:24;98655.78;;;12.20;60.23
66176;BME280;52977;44.816;20.538;2024-01-06T08:08:51;98715.53;;;12.54;60.53
66176;BME280;52977;44.816;20.538;2024-01-06T08:11:17;98645.31;;;12.06;61.44
66176;BME280;52977;44.816;20.538;2024-01-06T08:13:44;98707.38;;;12.77;64.83
66176;BME280;52977;44.816;20.538;2024-01-06T08:16:10;98712.28;;;12.87;63.31
66176;BME280;52977;44.816;20.538;2024-01-06T08:18:36;98698.22;;;12.89;64.13
66176;BME280;52977;44.816;20.538;2024-01-06T08:21:03;98676.75;;;12.91;63.11
66176;BME280;52977;44.816;20.538;2024-01-06T08:23:29;98698.56;;;13.07;62.28
66176;BME280;52977;44.816;20.538;2024-01-06T08:25:56;98674.13;;;12.98;61.33
66176;BME280;52977;44.816;20.538;2024-01-06T08:28:22;98710.75;;;13.32;61.52
66176;BME280;52977;44.816;20.538;2024-01-06T08:30:49;98692.66;;;13.28;61.28
66176;BME280;52977;44.816;20.538;2024-01-06T08:33:16;98608.09;;;12.80;60.99
66176;BME280;52977;44.816;20.538;2024-01-06T08:35:44;98677.97;;;13.36;60.88
66176;BME280;52977;44.816;20.538;2024-01-06T08:38:10;98660.88;;;13.23;61.12
66176;BME280;52977;44.816;20.538;2024-01-06T08:40:36;98657.41;;;13.26;60.26
66176;BME280;52977;44.816;20.538;2024-01-06T08:43:02;98691.19;;;13.54;61.16
66176;BME280;52977;44.816;20.538;2024-01-06T08:45:29;98651.00;;;13.38;60.65
66176;BME280;52977;44.816;20.538;2024-01-06T08:47:56;98687.72;;;13.57;60.09
66176;BME280;52977;44.816;20.538;2024-01-06T08:50:22;98707.00;;;13.64;59.64
66176;BME280;52977;44.816;20.538;2024-01-06T08:52:49;98658.84;;;13.40;59.68
66176;BME280;52977;44.816;20.538;2024-01-06T08:55:15;98605.34;;;13.03;59.35
66176;BME280;52977;44.816;20.538;2024-01-06T08:57:42;98698.94;;;13.48;60.05
66176;BME280;52977;44.816;20.538;2024-01-06T09:00:09;98682.69;;;13.62;59.80
66176;BME280;52977;44.816;20.538;2024-01-06T09:02:36;98665.41;;;13.35;59.79
66176;BME280;52977;44.816;20.538;2024-01-06T09:05:03;98688.97;;;13.63;60.52
66176;BME280;52977;44.816;20.538;2024-01-06T09:07:30;98697.75;;;13.72;60.67
66176;BME280;52977;44.816;20.538;2024-01-06T09:09:56;98700.78;;;13.67;60.03
66176;BME280;52977;44.816;20.538;2024-01-06T09:12:23;98619.78;;;13.23;59.78
66176;BME280;52977;44.816;20.538;2024-01-06T09:14:50;98632.97;;;13.37;60.51
66176;BME280;52977;44.816;20.538;2024-01-06T09:17:16;98679.09;;;13.81;60.03
66176;BME280;52977;44.816;20.538;2024-01-06T09:19:42;98628.06;;;13.50;59.58
66176;BME280;52977;44.816;20.538;2024-01-06T09:22:09;98659.25;;;13.65;60.90
66176;BME280;52977;44.816;20.538;2024-01-06T09:24:35;98655.75;;;13.68;59.88
66176;BME280;52977;44.816;20.538;2024-01-06T09:27:01;98574.06;;;13.04;60.42
66176;BME280;52977;44.816;20.538;2024-01-06T09:29:28;98662.03;;;13.68;60.73
66176;BME280;52977;44.816;20.538;2024-01-06T09:31:54;98631.22;;;13.52;59.93
66176;BME280;52977;44.816;20.538;2024-01-06T09:34:20;98634.38;;;13.54;59.59
66176;BME280;52977;44.816;20.538;2024-01-06T09:36:46;98672.13;;;13.88;59.64
66176;BME280;52977;44.816;20.538;2024-01-06T09:39:12;98678.75;;;13.87;59.45
66176;BME280;52977;44.816;20.538;2024-01-06T09:41:38;98670.13;;;13.84;59.47
66176;BME280;52977;44.816;20.538;2024-01-06T09:44:05;98681.94;;;13.89;60.85
66176;BME280;52977;44.816;20.538;2024-01-06T09:46:31;98613.56;;;13.49;60.26
66176;BME280;52977;44.816;20.538;2024-01-06T09:48:58;98625.66;;;13.72;60.27
66176;BME280;52977;44.816;20.538;2024-01-06T09:51:24;98658.59;;;14.02;59.82
66176;BME280;52977;44.816;20.538;2024-01-06T09:54:12;98644.69;;;13.88;58.85
66176;BME280;52977;44.816;20.538;2024-01-06T09:56:39;98606.19;;;13.54;59.00
66176;BME280;52977;44.816;20.538;2024-01-06T09:59:05;98645.53;;;13.65;59.47
66176;BME280;52977;44.816;20.538;2024-01-06T10:01:32;98633.38;;;13.39;59.43
66176;BME280;52977;44.816;20.538;2024-01-06T10:03:58;98607.97;;;13.19;60.39
66176;BME280;52977;44.816;20.538;2024-01-06T10:06:24;98635.56;;;13.30;60.58
66176;BME280;52977;44.816;20.538;2024-01-06T10:08:52;98609.13;;;12.95;60.98
66176;BME280;52977;44.816;20.538;2024-01-06T10:11:20;98649.47;;;13.21;61.15
66176;BME280;52977;44.816;20.538;2024-01-06T10:13:51;98615.88;;;13.01;61.19
66176;BME280;52977;44.816;20.538;2024-01-06T10:16:18;98606.25;;;12.88;61.50
66176;BME280;52977;44.816;20.538;2024-01-06T10:18:45;98611.13;;;12.98;61.08
66176;BME280;52977;44.816;20.538;2024-01-06T10:21:12;98616.53;;;12.94;61.23
66176;BME280;52977;44.816;20.538;2024-01-06T10:23:39;98628.78;;;13.01;61.87
66176;BME280;52977;44.816;20.538;2024-01-06T10:26:05;98529.84;;;12.36;61.81
66176;BME280;52977;44.816;20.538;2024-01-06T10:28:31;98582.28;;;12.81;63.69
66176;BME280;52977;44.816;20.538;2024-01-06T10:30:58;98643.97;;;13.18;61.67
66176;BME280;52977;44.816;20.538;2024-01-06T10:33:26;98559.56;;;12.80;61.67
66176;BME280;52977;44.816;20.538;2024-01-06T10:35:53;98612.84;;;13.06;61.79
66176;BME280;52977;44.816;20.538;2024-01-06T10:38:22;98582.53;;;12.95;61.89
66176;BME280;52977;44.816;20.538;2024-01-06T10:41:03;98601.03;;;13.02;62.00
66176;BME280;52977;44.816;20.538;2024-01-06T10:43:34;98612.16;;;13.13;62.47
66176;BME280;52977;44.816;20.538;2024-01-06T10:46:03;98596.25;;;12.99;62.85
66176;BME280;52977;44.816;20.538;2024-01-06T10:48:34;98599.19;;;13.10;62.36
66176;BME280;52977;44.816;20.538;2024-01-06T10:51:01;98623.06;;;13.09;62.88
66176;BME280;52977;44.816;20.538;2024-01-06T10:53:34;98607.84;;;13.12;62.58
66176;BME280;52977;44.816;20.538;2024-01-06T10:56:06;98575.81;;;12.93;62.55
66176;BME280;52977;44.816;20.538;2024-01-06T10:58:35;98595.31;;;13.11;62.83
66176;BME280;52977;44.816;20.538;2024-01-06T11:01:09;98591.34;;;13.08;63.19
66176;BME280;52977;44.816;20.538;2024-01-06T11:03:39;98555.69;;;12.81;63.48
66176;BME280;52977;44.816;20.538;2024-01-06T11:06:07;98568.72;;;12.88;63.81
66176;BME280;52977;44.816;20.538;2024-01-06T11:11:22;98528.66;;;12.80;63.76
66176;BME280;52977;44.816;20.538;2024-01-06T11:13:49;98582.53;;;12.95;63.82
66176;BME280;52977;44.816;20.538;2024-01-06T11:16:37;98564.25;;;13.03;64.12
66176;BME280;52977;44.816;20.538;2024-01-06T11:22:25;98515.63;;;12.73;64.64
66176;BME280;52977;44.816;20.538;2024-01-06T11:24:56;98544.22;;;12.99;64.78
66176;BME280;52977;44.816;20.538;2024-01-06T11:27:27;98550.63;;;13.07;64.67
66176;BME280;52977;44.816;20.538;2024-01-06T11:30:01;98544.78;;;13.08;64.97
66176;BME280;52977;44.816;20.538;2024-01-06T11:32:38;98512.34;;;12.87;64.97
66176;BME280;52977;44.816;20.538;2024-01-06T11:35:10;98546.78;;;13.11;65.07
66176;BME280;52977;44.816;20.538;2024-01-06T11:37:52;98387.94;;;12.11;64.80
66176;BME280;52977;44.816;20.538;2024-01-06T11:43:08;98534.59;;;13.09;65.20
66176;BME280;52977;44.816;20.538;2024-01-06T11:45:36;98511.59;;;12.90;65.21
66176;BME280;52977;44.816;20.538;2024-01-06T11:48:05;98536.63;;;13.12;65.51
66176;BME280;52977;44.816;20.538;2024-01-06T11:50:35;98533.44;;;13.10;65.60
66176;BME280;52977;44.816;20.538;2024-01-06T11:53:03;98515.28;;;12.98;65.56
66176;BME280;52977;44.816;20.538;2024-01-06T11:55:29;98531.38;;;13.03;65.19
66176;BME280;52977;44.816;20.538;2024-01-06T11:58:18;98530.53;;;12.99;65.93
66176;BME280;52977;44.816;20.538;2024-01-06T12:00:55;98537.28;;;13.05;66.07
66176;BME280;52977;44.816;20.538;2024-01-06T12:03:21;98497.81;;;12.83;66.06
66176;BME280;52977;44.816;20.538;2024-01-06T12:06:02;98479.69;;;12.75;66.27
66176;BME280;52977;44.816;20.538;2024-01-06T12:08:28;98486.94;;;12.87;66.55
66176;BME280;52977;44.816;20.538;2024-01-06T12:11:02;98497.66;;;12.99;66.43
66176;BME280;52977;44.816;20.538;2024-01-06T12:13:29;98511.13;;;13.08;66.30
66176;BME280;52977;44.816;20.538;2024-01-06T12:15:56;98476.00;;;12.90;66.69
66176;BME280;52977;44.816;20.538;2024-01-06T12:18:25;98504.16;;;13.14;67.00
66176;BME280;52977;44.816;20.538;2024-01-06T12:20:52;98492.72;;;13.08;66.92
66176;BME280;52977;44.816;20.538;2024-01-06T12:23:28;98471.00;;;12.96;67.10
66176;BME280;52977;44.816;20.538;2024-01-06T12:25:55;98499.81;;;13.13;68.47
66176;BME280;52977;44.816;20.538;2024-01-06T12:28:22;98467.13;;;12.97;68.21
66176;BME280;52977;44.816;20.538;2024-01-06T12:30:49;98490.88;;;13.16;67.75
66176;BME280;52977;44.816;20.538;2024-01-06T12:33:19;98452.16;;;12.91;67.74
66176;BME280;52977;44.816;20.538;2024-01-06T12:35:46;98437.94;;;12.81;68.10
66176;BME280;52977;44.816;20.538;2024-01-06T12:38:12;98483.97;;;12.99;69.22
66176;BME280;52977;44.816;20.538;2024-01-06T12:40:38;98390.72;;;12.38;69.79
66176;BME280;52977;44.816;20.538;2024-01-06T12:43:05;98480.88;;;13.01;69.49
66176;BME280;52977;44.816;20.538;2024-01-06T12:45:31;98473.50;;;13.05;69.71
66176;BME280;52977;44.816;20.538;2024-01-06T12:47:58;98471.91;;;13.04;69.74
66176;BME280;52977;44.816;20.538;2024-01-06T12:50:24;98460.97;;;13.04;69.74
66176;BME280;52977;44.816;20.538;2024-01-06T12:52:50;98462.19;;;13.06;69.86
66176;BME280;52977;44.816;20.538;2024-01-06T12:55:17;98409.16;;;12.68;70.59
66176;BME280;52977;44.816;20.538;2024-01-06T12:57:42;98373.56;;;12.41;70.82